Time;durP1;ratioP1;P1;durP2;ratioP2;P2;SDS_P1;SDS_P2;PMS_P1;PMS_P2;Temp;Humidity;BMP_temperature;BMP_pressure;BME280_temperature;BME280_humidity;BME280_pressure;Samples;Min_cycle;Max_cycle;Signal;HPM_P1;HPM_P2
2022/07/02 00:01:57;;;;;;;1.57;1.23;;;;;;;15.46;100.00;102128.38;4999359;28;20700;-68
2022/07/02 00:04:27;;;;;;;1.50;1.00;;;;;;;15.62;100.00;102135.31;4998589;28;20217;-68
2022/07/02 00:06:53;;;;;;;1.73;1.40;;;;;;;15.51;100.00;102134.88;4997193;28;20194;-67
2022/07/02 00:09:19;;;;;;;2.13;0.80;;;;;;;15.82;100.00;102156.06;4998999;28;20440;-68
2022/07/02 00:11:47;;;;;;;2.20;1.43;;;;;;;16.00;100.00;102136.56;4995864;28;20218;-67
2022/07/02 00:14:15;;;;;;;2.10;1.53;;;;;;;15.94;100.00;102155.47;4999853;28;20455;-67
2022/07/02 00:16:44;;;;;;;9.23;1.60;;;;;;;15.73;100.00;102127.50;4998601;28;20860;-68
2022/07/02 00:19:09;;;;;;;3.10;1.20;;;;;;;16.11;100.00;102153.25;5000306;28;20445;-68
2022/07/02 00:21:39;;;;;;;1.70;1.43;;;;;;;15.92;100.00;102150.28;4998366;28;20862;-68
2022/07/02 00:24:07;;;;;;;1.53;1.40;;;;;;;15.99;100.00;102142.16;4998283;28;20223;-68
2022/07/02 00:26:36;;;;;;;3.70;1.43;;;;;;;16.13;100.00;102140.34;5002787;28;20499;-68
2022/07/02 00:29:54;;;;;;;1.77;1.10;;;;;;;16.10;100.00;102144.28;4998446;28;20452;-68
2022/07/02 00:32:20;;;;;;;4.80;1.20;;;;;;;16.05;100.00;102138.66;4949546;28;20507;-68
2022/07/02 00:34:46;;;;;;;3.43;1.40;;;;;;;16.01;100.00;102140.09;4997732;28;20937;-68
2022/07/02 00:37:13;;;;;;;3.33;1.40;;;;;;;16.10;100.00;102140.75;4997826;28;20189;-67
2022/07/02 00:39:39;;;;;;;3.60;1.67;;;;;;;15.83;100.00;102113.63;4994045;28;20276;-67
2022/07/02 00:42:06;;;;;;;3.27;1.60;;;;;;;15.86;100.00;102123.19;4995663;28;20552;-69
2022/07/02 00:44:32;;;;;;;4.03;1.40;;;;;;;15.93;100.00;102137.56;4998778;28;20337;-68
2022/07/02 00:47:04;;;;;;;4.57;1.63;;;;;;;15.76;100.00;102113.56;4998350;28;21053;-68
2022/07/02 00:49:32;;;;;;;2.97;1.40;;;;;;;15.93;100.00;102148.41;4994849;28;20520;-68
2022/07/02 00:51:59;;;;;;;3.57;1.30;;;;;;;15.77;100.00;102136.91;4996466;28;20929;-68
2022/07/02 00:54:24;;;;;;;6.40;1.57;;;;;;;15.84;100.00;102152.31;4998763;28;20440;-67
2022/07/02 00:56:52;;;;;;;3.90;1.30;;;;;;;15.85;100.00;102162.09;4996429;28;20937;-68
2022/07/02 00:59:18;;;;;;;3.73;1.33;;;;;;;15.78;100.00;102151.25;4996915;28;20185;-68
2022/07/02 01:01:43;;;;;;;3.33;1.40;;;;;;;15.55;100.00;102128.00;4994554;28;20477;-68
2022/07/02 01:04:13;;;;;;;1.93;1.20;;;;;;;15.90;100.00;102155.03;4998588;28;20460;-67
2022/07/02 01:06:41;;;;;;;2.77;1.50;;;;;;;15.86;100.00;102142.97;4993763;28;20257;-68
2022/07/02 01:11:55;;;;;;;3.63;1.30;;;;;;;15.87;100.00;102132.97;4998695;28;20522;-68
2022/07/02 01:14:21;;;;;;;6.53;1.90;;;;;;;15.57;100.00;102104.31;4996452;28;20922;-68
2022/07/02 01:16:47;;;;;;;2.73;1.50;;;;;;;15.58;100.00;102124.91;4994327;28;20831;-68
2022/07/02 01:19:17;;;;;;;2.37;1.40;;;;;;;15.70;100.00;102127.06;5001038;28;20443;-68
2022/07/02 01:22:15;;;;;;;6.10;1.37;;;;;;;15.56;100.00;102126.13;4997664;28;20333;-68
2022/07/02 01:24:43;;;;;;;2.13;1.43;;;;;;;15.66;100.00;102126.63;4997377;28;20447;-67
2022/07/02 01:27:08;;;;;;;3.20;1.50;;;;;;;15.71;100.00;102129.59;4999468;28;20452;-68
2022/07/02 01:29:34;;;;;;;4.57;2.00;;;;;;;15.62;100.00;102124.50;4998600;28;21131;-68
2022/07/02 01:32:00;;;;;;;2.07;1.37;;;;;;;15.71;100.00;102129.59;4995310;28;20209;-67
2022/07/02 01:34:25;;;;;;;3.53;1.57;;;;;;;15.56;100.00;102131.53;4997187;28;20181;-67
2022/07/02 01:36:51;;;;;;;3.50;1.90;;;;;;;15.63;100.00;102126.19;4998293;28;20216;-68
2022/07/02 01:39:23;;;;;;;2.67;1.43;;;;;;;15.58;100.00;102135.72;4997433;28;20181;-68
2022/07/02 01:41:49;;;;;;;5.17;1.70;;;;;;;15.59;100.00;102134.72;4997916;28;20221;-68
2022/07/02 01:44:14;;;;;;;1.77;1.23;;;;;;;15.51;100.00;102110.53;4997289;28;20497;-68
2022/07/02 01:46:39;;;;;;;1.40;1.30;;;;;;;15.54;100.00;102126.34;4996049;28;20232;-68
2022/07/02 01:49:05;;;;;;;3.77;1.00;;;;;;;15.43;100.00;102128.78;4996712;28;20247;-68
2022/07/02 01:51:31;;;;;;;3.53;1.23;;;;;;;15.52;100.00;102119.47;5002617;28;20719;-67
2022/07/02 01:53:57;;;;;;;1.77;1.40;;;;;;;15.51;100.00;102126.75;4999207;28;20444;-67
2022/07/02 01:56:22;;;;;;;2.43;1.27;;;;;;;15.58;100.00;102129.47;5001046;28;20260;-67
2022/07/02 01:58:48;;;;;;;4.10;1.60;;;;;;;15.45;100.00;102122.16;5000584;28;20667;-68
2022/07/02 02:01:13;;;;;;;2.87;1.57;;;;;;;15.62;100.00;102122.63;5001816;28;20255;-67
2022/07/02 02:03:38;;;;;;;3.93;1.30;;;;;;;15.54;100.00;102117.41;4997038;28;20209;-67
2022/07/02 02:06:04;;;;;;;4.60;1.63;;;;;;;15.50;100.00;102125.06;5001054;28;20196;-67
2022/07/02 02:08:30;;;;;;;5.47;1.50;;;;;;;15.68;100.00;102123.72;4998300;28;20651;-67
2022/07/02 02:10:56;;;;;;;3.67;1.40;;;;;;;15.57;100.00;102125.13;4999802;28;21462;-67
2022/07/02 02:13:21;;;;;;;3.40;1.10;;;;;;;15.44;100.00;102115.06;5002500;28;20438;-67
2022/07/02 02:15:46;;;;;;;3.13;1.47;;;;;;;15.50;100.00;102118.81;4997651;28;20217;-67
2022/07/02 02:18:12;;;;;;;2.90;1.40;;;;;;;15.57;100.00;102117.00;4999218;28;20193;-67
2022/07/02 02:20:38;;;;;;;4.80;1.30;;;;;;;15.53;100.00;102130.06;4999023;28;20185;-68
2022/07/02 02:23:04;;;;;;;4.33;1.50;;;;;;;15.39;100.00;102120.25;5002338;28;20201;-67
2022/07/02 02:25:31;;;;;;;2.00;1.33;;;;;;;15.42;100.00;102125.25;4999371;28;20455;-69
2022/07/02 02:27:58;;;;;;;4.70;1.70;;;;;;;15.42;100.00;102105.47;4997692;28;21767;-67
2022/07/02 02:30:23;;;;;;;4.40;1.30;;;;;;;15.62;100.00;102117.22;4999337;28;20444;-67
2022/07/02 02:32:49;;;;;;;2.83;1.20;;;;;;;15.46;100.00;102125.69;5002163;28;20988;-67
2022/07/02 02:35:14;;;;;;;5.97;2.17;;;;;;;15.49;100.00;102118.00;5002034;28;20255;-67
2022/07/02 02:37:40;;;;;;;3.40;1.20;;;;;;;15.42;100.00;102119.00;5001130;28;20242;-69
2022/07/02 02:40:06;;;;;;;2.70;1.60;;;;;;;15.38;100.00;102118.56;5001183;28;20204;-69
2022/07/02 02:42:32;;;;;;;4.10;1.43;;;;;;;15.26;100.00;102120.16;4999039;28;20237;-69
2022/07/02 02:44:57;;;;;;;4.03;1.70;;;;;;;15.18;100.00;102112.22;5001131;28;20545;-68
2022/07/02 02:47:23;;;;;;;6.53;1.93;;;;;;;15.29;100.00;102117.88;4999983;28;20189;-68
2022/07/02 02:49:49;;;;;;;3.67;1.60;;;;;;;15.25;100.00;102132.00;4996863;28;20235;-67
2022/07/02 02:52:14;;;;;;;3.53;1.43;;;;;;;15.23;100.00;102134.91;4998308;28;20236;-67
2022/07/02 02:54:40;;;;;;;2.40;1.50;;;;;;;15.16;100.00;102136.75;4999850;28;20931;-68
2022/07/02 02:57:05;;;;;;;1.80;1.30;;;;;;;15.14;100.00;102134.22;5002637;28;20746;-70
2022/07/02 02:59:31;;;;;;;5.30;1.80;;;;;;;15.09;100.00;102135.84;4998419;28;20190;-67
2022/07/02 03:01:56;;;;;;;3.40;1.80;;;;;;;15.18;100.00;102133.81;4997886;28;20285;-70
2022/07/02 03:04:21;;;;;;;7.33;1.63;;;;;;;15.09;100.00;102130.44;4997390;28;20190;-69
2022/07/02 03:06:47;;;;;;;2.40;1.30;;;;;;;15.15;100.00;102125.06;4998146;28;20238;-69
2022/07/02 03:09:12;;;;;;;6.80;2.07;;;;;;;15.27;100.00;102135.34;4999786;28;20216;-69
2022/07/02 03:11:38;;;;;;;5.33;1.50;;;;;;;15.32;100.00;102133.72;4996632;28;20347;-69
2022/07/02 03:14:03;;;;;;;2.90;1.40;;;;;;;15.15;100.00;102108.84;4999506;28;20197;-69
2022/07/02 03:16:28;;;;;;;2.60;1.30;;;;;;;15.38;100.00;102134.78;5000341;28;20311;-69
2022/07/02 03:18:54;;;;;;;5.57;1.50;;;;;;;15.33;100.00;102130.00;4996994;28;20189;-70
2022/07/02 03:21:19;;;;;;;3.60;1.73;;;;;;;15.32;100.00;102136.41;4997295;28;20205;-69
2022/07/02 03:23:45;;;;;;;5.27;1.70;;;;;;;15.14;100.00;102123.41;5003916;28;20261;-69
2022/07/02 03:26:10;;;;;;;6.10;1.60;;;;;;;15.13;100.00;102124.47;5003935;28;20616;-68
2022/07/02 03:28:36;;;;;;;2.47;1.23;;;;;;;15.19;100.00;102121.97;4997568;28;20216;-69
2022/07/02 03:31:01;;;;;;;3.10;1.20;;;;;;;15.46;100.00;102150.03;4995636;28;20220;-68
2022/07/02 03:33:26;;;;;;;4.07;1.20;;;;;;;15.30;100.00;102145.75;5001455;28;20201;-69
2022/07/02 03:35:52;;;;;;;4.77;1.70;;;;;;;15.26;100.00;102134.50;4997353;28;20196;-68
2022/07/02 03:38:17;;;;;;;6.40;1.67;;;;;;;15.36;100.00;102155.75;4999633;28;20279;-69
2022/07/02 03:40:43;;;;;;;4.90;1.77;;;;;;;15.19;100.00;102144.44;4997184;28;20280;-70
2022/07/02 03:43:08;;;;;;;6.27;2.13;;;;;;;15.34;100.00;102153.28;5000036;28;20291;-69
2022/07/02 03:45:34;;;;;;;3.07;1.20;;;;;;;15.43;100.00;102153.13;4998065;28;20189;-69
2022/07/02 03:48:00;;;;;;;4.00;1.40;;;;;;;15.19;100.00;102120.13;4998478;28;20189;-69
2022/07/02 03:50:25;;;;;;;3.33;1.60;;;;;;;15.30;100.00;102134.94;4996310;28;20189;-68
2022/07/02 03:52:51;;;;;;;7.47;2.00;;;;;;;15.36;100.00;102150.34;5000000;28;20495;-69
2022/07/02 03:55:16;;;;;;;4.80;1.20;;;;;;;15.28;100.00;102147.84;5000082;28;20710;-69
2022/07/02 03:57:42;;;;;;;4.43;1.23;;;;;;;15.24;100.00;102133.84;4997706;28;20181;-69
2022/07/02 04:00:08;;;;;;;4.30;1.30;;;;;;;15.08;100.00;102118.81;4998984;28;20567;-69
2022/07/02 04:02:33;;;;;;;5.90;1.50;;;;;;;15.44;100.00;102147.50;4997976;28;20205;-69
2022/07/02 04:04:58;;;;;;;7.67;1.63;;;;;;;15.37;100.00;102136.66;4995115;28;20833;-69
2022/07/02 04:07:24;;;;;;;5.10;2.30;;;;;;;15.45;100.00;102161.84;4996649;28;20682;-69
2022/07/02 04:09:49;;;;;;;4.37;1.50;;;;;;;15.20;100.00;102137.19;4998637;28;20689;-69
2022/07/02 04:12:15;;;;;;;7.73;1.83;;;;;;;15.33;100.00;102172.38;4994608;28;20683;-69
2022/07/02 04:14:40;;;;;;;5.63;1.87;;;;;;;15.19;100.00;102138.19;4999789;28;20193;-69
2022/07/02 04:17:06;;;;;;;7.03;2.10;;;;;;;15.27;100.00;102173.19;4995356;28;20196;-69
2022/07/02 04:19:31;;;;;;;3.07;2.00;;;;;;;15.25;100.00;102167.97;5000231;28;20193;-69
2022/07/02 04:21:58;;;;;;;5.20;2.00;;;;;;;15.30;100.00;102186.28;4995875;28;20363;-69
2022/07/02 04:24:24;;;;;;;3.50;1.70;;;;;;;15.28;100.00;102180.28;5001319;28;20239;-69
2022/07/02 04:26:49;;;;;;;3.47;1.77;;;;;;;15.24;100.00;102178.97;4997614;28;20436;-69
2022/07/02 04:29:15;;;;;;;4.60;2.10;;;;;;;15.11;100.00;102152.72;4997705;28;20192;-69
2022/07/02 04:31:40;;;;;;;6.83;2.10;;;;;;;15.14;100.00;102180.16;4994815;28;20205;-69
2022/07/02 04:34:05;;;;;;;5.17;2.17;;;;;;;15.24;100.00;102181.69;4997529;28;21116;-69
2022/07/02 04:36:31;;;;;;;4.17;2.07;;;;;;;15.22;100.00;102179.19;5002281;28;20189;-69
2022/07/02 04:38:56;;;;;;;6.33;2.10;;;;;;;15.05;100.00;102154.31;4996934;28;20663;-69
2022/07/02 04:41:22;;;;;;;3.97;1.87;;;;;;;15.20;100.00;102178.53;4997607;28;20578;-69
2022/07/02 04:43:47;;;;;;;4.90;2.20;;;;;;;15.19;100.00;102174.19;4996301;28;20277;-69
2022/07/02 04:46:12;;;;;;;10.10;2.20;;;;;;;15.32;100.00;102185.06;4997086;28;20211;-69
2022/07/02 04:48:38;;;;;;;3.07;1.57;;;;;;;15.36;100.00;102185.50;4997720;28;20181;-69
2022/07/02 04:51:03;;;;;;;8.03;2.03;;;;;;;15.27;100.00;102186.69;4992891;28;20196;-69
2022/07/02 04:53:29;;;;;;;5.70;2.80;;;;;;;15.01;100.00;102181.91;4996594;28;20185;-69
2022/07/02 04:55:54;;;;;;;8.17;2.57;;;;;;;15.21;100.00;102198.28;4998533;28;20276;-69
2022/07/02 04:58:19;;;;;;;2.70;2.00;;;;;;;15.27;100.00;102209.16;4997065;28;20185;-69
2022/07/02 05:00:45;;;;;;;6.13;2.40;;;;;;;15.23;100.00;102197.06;4995662;28;20257;-66
2022/07/02 05:03:10;;;;;;;5.27;2.40;;;;;;;15.30;100.00;102189.00;4994811;28;20210;-67
2022/07/02 05:05:36;;;;;;;4.60;2.73;;;;;;;15.14;100.00;102190.97;4997388;28;20603;-67
2022/07/02 05:08:01;;;;;;;5.37;2.50;;;;;;;15.26;100.00;102201.25;4994837;28;20189;-67
2022/07/02 05:10:26;;;;;;;5.13;2.40;;;;;;;15.33;100.00;102197.56;4997884;28;20185;-68
2022/07/02 05:12:52;;;;;;;5.33;2.87;;;;;;;15.48;100.00;102193.94;4994117;28;20567;-66
2022/07/02 05:15:17;;;;;;;4.20;2.73;;;;;;;15.38;100.00;102181.56;4997996;28;20231;-67
2022/07/02 05:17:43;;;;;;;4.47;2.60;;;;;;;15.54;100.00;102193.97;4997391;28;20181;-67
2022/07/02 05:20:09;;;;;;;5.30;2.47;;;;;;;15.56;100.00;102194.59;4995149;28;20193;-68
2022/07/02 05:22:35;;;;;;;3.80;1.93;;;;;;;15.71;100.00;102191.81;4997139;28;20467;-68
2022/07/02 05:25:00;;;;;;;4.10;1.73;;;;;;;15.83;100.00;102194.78;4999684;28;20200;-67
2022/07/02 05:27:26;;;;;;;4.50;2.27;;;;;;;15.88;100.00;102189.59;5003345;28;20177;-68
2022/07/02 05:29:51;;;;;;;5.20;2.50;;;;;;;15.91;100.00;102191.03;4996690;28;20250;-67
2022/07/02 05:32:17;;;;;;;6.10;2.73;;;;;;;15.74;100.00;102167.06;5001330;28;20212;-67
2022/07/02 05:34:42;;;;;;;4.57;2.40;;;;;;;15.51;100.00;102155.66;5006300;28;20192;-68
2022/07/02 05:37:07;;;;;;;2.40;2.17;;;;;;;15.79;100.00;102190.78;5000152;28;20230;-68
2022/07/02 05:39:33;;;;;;;3.70;3.00;;;;;;;15.70;100.00;102189.28;4999760;28;20212;-67
2022/07/02 05:41:58;;;;;;;5.27;3.40;;;;;;;15.47;100.00;102184.94;5000002;28;20201;-66
2022/07/02 05:44:24;;;;;;;4.50;3.50;;;;;;;15.16;100.00;102166.47;5001321;28;20681;-68
2022/07/02 05:46:49;;;;;;;5.33;3.33;;;;;;;15.22;100.00;102170.25;4999102;28;20231;-66
2022/07/02 05:49:15;;;;;;;4.40;3.70;;;;;;;15.39;100.00;102187.84;5001519;28;20189;-68
2022/07/02 05:51:41;;;;;;;5.40;3.73;;;;;;;15.46;100.00;102188.69;4999795;28;20213;-68
2022/07/02 05:54:06;;;;;;;4.50;3.40;;;;;;;15.29;100.00;102177.34;5000311;28;20815;-68
2022/07/02 05:56:31;;;;;;;6.43;3.63;;;;;;;15.42;100.00;102200.97;4999676;28;20181;-68
2022/07/02 05:58:57;;;;;;;5.30;3.70;;;;;;;15.54;100.00;102198.53;4999329;28;20238;-66
2022/07/02 06:01:23;;;;;;;7.53;3.93;;;;;;;15.46;100.00;102187.88;5000962;28;20644;-68
2022/07/02 06:03:48;;;;;;;5.00;4.50;;;;;;;15.50;100.00;102205.34;4998337;28;20641;-68
2022/07/02 06:08:58;;;;;;;9.03;3.53;;;;;;;15.77;100.00;102191.00;4999317;28;20195;-66
2022/07/02 06:11:23;;;;;;;5.00;3.70;;;;;;;15.86;100.00;102209.78;4999639;28;20893;-67
2022/07/02 06:13:49;;;;;;;7.50;4.60;;;;;;;15.79;100.00;102207.88;5004459;28;20267;-68
2022/07/02 06:16:14;;;;;;;7.10;4.73;;;;;;;15.83;100.00;102202.91;4999991;28;20304;-67
2022/07/02 06:18:39;;;;;;;8.50;4.93;;;;;;;15.78;100.00;102214.31;5003798;28;20186;-68
2022/07/02 06:21:05;;;;;;;10.10;5.53;;;;;;;15.74;100.00;102228.44;4997405;28;20192;-68
2022/07/02 06:23:31;;;;;;;5.43;4.03;;;;;;;15.93;100.00;102222.28;5003567;28;20193;-68
2022/07/02 06:25:56;;;;;;;6.37;4.30;;;;;;;15.76;100.00;102192.00;5000269;28;20659;-67
2022/07/02 06:28:21;;;;;;;4.93;4.00;;;;;;;15.90;100.00;102222.69;5000853;28;20657;-68
2022/07/02 06:30:47;;;;;;;8.40;3.37;;;;;;;16.04;100.00;102219.00;5002097;28;20208;-68
2022/07/02 06:33:12;;;;;;;6.83;4.20;;;;;;;16.31;100.00;102223.69;5000530;28;20209;-66
2022/07/02 06:35:40;;;;;;;4.67;3.50;;;;;;;16.17;100.00;102220.09;4999203;28;20189;-67
2022/07/02 06:38:06;;;;;;;4.53;3.03;;;;;;;16.38;100.00;102228.09;4999688;28;20185;-68
2022/07/02 06:40:32;;;;;;;6.50;3.43;;;;;;;16.23;100.00;102222.84;5000760;28;20444;-67
2022/07/02 06:42:57;;;;;;;3.63;3.00;;;;;;;16.57;100.00;102233.75;4996032;28;20467;-68
2022/07/02 06:45:23;;;;;;;6.30;3.33;;;;;;;16.55;100.00;102236.69;5001454;28;25754;-67
2022/07/02 06:47:48;;;;;;;5.87;3.27;;;;;;;16.47;100.00;102224.16;5000304;28;20566;-66
2022/07/02 06:50:16;;;;;;;9.77;3.07;;;;;;;16.56;100.00;102229.41;5012073;28;20189;-67
2022/07/02 06:52:44;;;;;;;8.40;2.97;;;;;;;16.46;100.00;102224.34;4998205;28;20264;-68
2022/07/02 06:55:10;;;;;;;6.40;3.00;;;;;;;16.57;100.00;102222.94;4999423;28;20543;-67
2022/07/02 06:57:35;;;;;;;4.07;2.50;;;;;;;16.77;100.00;102221.13;4999222;28;20931;-68
2022/07/02 07:00:00;;;;;;;6.80;2.87;;;;;;;16.76;100.00;102221.31;4997972;28;20185;-68
2022/07/02 07:02:26;;;;;;;2.63;2.10;;;;;;;16.76;100.00;102215.91;5001319;28;20756;-67
2022/07/02 07:04:51;;;;;;;4.03;2.47;;;;;;;16.87;100.00;102235.13;4998051;28;20186;-68
2022/07/02 07:07:18;;;;;;;5.87;2.10;;;;;;;16.77;100.00;102231.13;4998276;28;20557;-68
2022/07/02 07:09:43;;;;;;;6.00;2.23;;;;;;;16.80;100.00;102219.88;4994267;28;20204;-68
2022/07/02 07:12:09;;;;;;;4.27;2.83;;;;;;;16.78;100.00;102232.78;5001187;28;20509;-68
2022/07/02 07:14:35;;;;;;;3.70;2.10;;;;;;;16.89;100.00;102229.47;5002184;28;20181;-67
2022/07/02 07:17:01;;;;;;;6.03;2.50;;;;;;;16.88;100.00;102241.38;5001681;28;20206;-68
2022/07/02 07:19:26;;;;;;;4.20;1.97;;;;;;;16.97;100.00;102229.28;5001543;28;20420;-67
2022/07/02 07:21:52;;;;;;;4.83;2.07;;;;;;;16.91;100.00;102216.56;4999015;28;20271;-68
2022/07/02 07:24:17;;;;;;;4.33;2.10;;;;;;;17.17;100.00;102215.72;5001046;28;20198;-67
2022/07/02 07:26:43;;;;;;;5.43;2.00;;;;;;;17.35;100.00;102225.94;5001577;28;20188;-67
2022/07/02 07:29:09;;;;;;;5.00;2.00;;;;;;;17.19;100.00;102232.63;4997571;28;20693;-66
2022/07/02 07:31:35;;;;;;;5.33;1.63;;;;;;;17.19;100.00;102224.50;4998237;28;20489;-68
2022/07/02 07:34:02;;;;;;;3.33;1.50;;;;;;;17.29;100.00;102215.94;5002828;28;20188;-67
2022/07/02 07:36:28;;;;;;;2.53;1.50;;;;;;;17.01;100.00;102208.88;4987064;28;20440;-68
2022/07/02 07:38:54;;;;;;;3.73;1.27;;;;;;;17.26;100.00;102216.34;4998407;28;20441;-66
2022/07/02 07:41:21;;;;;;;5.80;1.53;;;;;;;17.36;100.00;102209.47;4992137;28;20448;-65
2022/07/02 07:43:47;;;;;;;5.63;2.00;;;;;;;17.57;100.00;102230.09;4999709;28;20667;-68
2022/07/02 07:46:12;;;;;;;2.03;1.33;;;;;;;17.56;100.00;102233.00;4995917;28;20440;-67
2022/07/02 07:48:38;;;;;;;4.03;1.47;;;;;;;17.73;100.00;102225.22;4989620;28;20213;-66
2022/07/02 07:51:05;;;;;;;2.90;1.10;;;;;;;17.83;100.00;102198.53;4984110;28;21010;-68
2022/07/02 07:53:31;;;;;;;2.63;1.40;;;;;;;17.75;100.00;102228.59;4996705;28;20173;-71
2022/07/02 07:55:56;;;;;;;4.13;1.20;;;;;;;17.74;100.00;102221.50;4993733;28;20480;-70
2022/07/02 07:58:22;;;;;;;3.30;1.10;;;;;;;17.70;100.00;102221.06;4992670;28;20208;-70
2022/07/02 08:00:47;;;;;;;2.73;0.93;;;;;;;17.67;100.00;102220.66;4995237;28;20208;-69
2022/07/02 08:03:14;;;;;;;2.10;0.83;;;;;;;17.71;100.00;102232.78;4992924;28;20210;-70
2022/07/02 08:05:41;;;;;;;2.40;0.80;;;;;;;17.86;100.00;102230.66;4993724;28;20232;-70
2022/07/02 08:08:09;;;;;;;3.10;1.00;;;;;;;17.99;100.00;102218.91;4999474;28;20431;-69
2022/07/02 08:10:35;;;;;;;2.40;1.00;;;;;;;17.97;100.00;102202.03;4991018;28;20452;-70
2022/07/02 08:13:00;;;;;;;3.67;0.83;;;;;;;18.11;100.00;102217.22;4987203;28;20837;-70
2022/07/02 08:15:27;;;;;;;1.93;0.93;;;;;;;18.14;100.00;102226.78;4975129;28;20208;-70
2022/07/02 08:17:53;;;;;;;3.23;0.83;;;;;;;18.20;100.00;102224.06;4995841;28;20188;-69
2022/07/02 08:20:18;;;;;;;3.07;0.87;;;;;;;18.20;100.00;102234.09;4996806;28;20436;-70
2022/07/02 08:22:46;;;;;;;2.37;0.97;;;;;;;18.20;100.00;102204.22;4989565;28;20711;-68
2022/07/02 08:25:15;;;;;;;1.03;0.60;;;;;;;18.45;100.00;102234.16;4997715;28;20197;-68
2022/07/02 08:27:42;;;;;;;2.60;1.80;;;;;;;18.28;100.00;102212.97;4999364;28;20453;-69
2022/07/02 08:30:08;;;;;;;2.30;0.70;;;;;;;18.35;100.00;102229.22;4992416;28;20440;-69
2022/07/02 08:32:33;;;;;;;1.80;1.30;;;;;;;18.28;100.00;102237.41;4996857;28;20553;-71
2022/07/02 08:34:59;;;;;;;3.03;1.10;;;;;;;18.42;100.00;102221.84;4997597;28;20441;-70
2022/07/02 08:37:25;;;;;;;2.23;0.80;;;;;;;18.56;100.00;102216.34;4990512;28;20664;-69
2022/07/02 08:39:51;;;;;;;2.97;1.00;;;;;;;18.74;100.00;102232.78;4995804;28;20189;-69
2022/07/02 08:42:24;;;;;;;2.23;0.80;;;;;;;18.61;100.00;102233.66;4991741;28;20475;-66
2022/07/02 08:44:52;;;;;;;1.33;0.70;;;;;;;18.76;100.00;102227.13;4990913;28;20436;-68
2022/07/02 08:47:19;;;;;;;1.07;0.90;;;;;;;18.85;100.00;102234.78;4988748;28;20562;-68
2022/07/02 08:49:46;;;;;;;1.20;0.80;;;;;;;18.74;100.00;102206.41;4991440;28;20445;-67
2022/07/02 08:52:16;;;;;;;2.70;1.00;;;;;;;18.83;100.00;102236.06;5002000;28;20460;-68
2022/07/02 08:54:42;;;;;;;2.10;0.80;;;;;;;18.82;100.00;102223.53;5012320;28;20929;-67
2022/07/02 08:57:11;;;;;;;3.20;1.17;;;;;;;19.03;100.00;102239.47;4996252;28;20447;-67
2022/07/02 08:59:36;;;;;;;3.60;0.90;;;;;;;18.94;100.00;102221.75;4998342;28;20526;-69
2022/07/02 09:02:02;;;;;;;1.40;0.70;;;;;;;19.06;100.00;102221.88;4994958;28;20503;-69
2022/07/02 09:04:30;;;;;;;1.43;0.90;;;;;;;19.04;100.00;102224.81;5000978;28;20196;-67
2022/07/02 09:06:58;;;;;;;1.47;0.70;;;;;;;19.04;100.00;102213.13;4997950;28;20444;-67
2022/07/02 09:09:28;;;;;;;2.10;0.70;;;;;;;19.36;100.00;102212.00;4992789;28;20973;-67
2022/07/02 09:11:54;;;;;;;3.43;1.00;;;;;;;18.91;100.00;102179.53;4999192;28;20894;-67
2022/07/02 09:14:20;;;;;;;2.60;1.03;;;;;;;19.29;100.00;102213.91;4995664;28;20439;-68
2022/07/02 09:16:47;;;;;;;1.67;0.80;;;;;;;19.32;100.00;102207.22;5002087;28;20904;-67
2022/07/02 09:19:13;;;;;;;0.97;0.77;;;;;;;19.46;100.00;102214.19;5001594;28;20442;-67
2022/07/02 09:21:43;;;;;;;5.87;1.10;;;;;;;19.19;100.00;102210.88;4998798;28;20847;-67
2022/07/02 09:24:08;;;;;;;2.73;0.80;;;;;;;19.24;100.00;102188.44;4993462;28;20185;-68
2022/07/02 09:26:33;;;;;;;1.13;0.77;;;;;;;19.64;100.00;102203.34;4998402;28;20435;-68
2022/07/02 09:29:00;;;;;;;1.70;0.80;;;;;;;19.71;100.00;102197.84;4996230;28;20320;-68
2022/07/02 09:31:30;;;;;;;1.03;0.77;;;;;;;19.63;100.00;102198.94;4997237;28;20290;-68
2022/07/02 09:33:56;;;;;;;1.57;0.97;;;;;;;19.87;100.00;102210.00;4999143;28;20444;-68
2022/07/02 09:36:23;;;;;;;5.33;0.90;;;;;;;19.66;100.00;102192.22;4992751;28;20435;-69
2022/07/02 09:38:50;;;;;;;1.57;0.90;;;;;;;19.53;100.00;102204.06;4992961;28;20826;-68
2022/07/02 09:41:21;;;;;;;4.20;1.00;;;;;;;19.81;100.00;102206.28;4998496;28;20535;-67
2022/07/02 09:43:56;;;;;;;1.10;0.60;;;;;;;19.39;100.00;102131.81;4996525;28;20448;-67
2022/07/02 09:46:21;;;;;;;1.53;1.00;;;;;;;20.21;100.00;102192.19;4989921;28;20534;-69
2022/07/02 09:48:47;;;;;;;1.37;1.00;;;;;;;19.69;100.00;102188.22;4983046;28;20466;-67
2022/07/02 09:51:16;;;;;;;4.07;1.00;;;;;;;19.95;100.00;102185.19;4987089;28;20752;-67
2022/07/02 09:53:50;;;;;;;1.40;0.60;;;;;;;20.13;100.00;102199.84;4990962;28;20210;-69
2022/07/02 09:56:16;;;;;;;1.57;0.60;;;;;;;20.05;100.00;102203.72;4991522;28;20506;-68
2022/07/02 09:58:41;;;;;;;1.07;0.80;;;;;;;20.11;100.00;102167.41;4994440;28;20448;-67
2022/07/02 10:01:07;;;;;;;3.27;1.10;;;;;;;20.20;100.00;102162.47;4994542;28;20194;-68
2022/07/02 10:03:45;;;;;;;0.70;0.63;;;;;;;20.07;100.00;102160.72;4996167;28;20209;-68
2022/07/02 10:06:11;;;;;;;3.90;0.60;;;;;;;20.08;100.00;102198.66;4997638;28;20204;-69
2022/07/02 10:08:37;;;;;;;1.33;0.60;;;;;;;20.16;100.00;102174.88;4999218;28;20447;-68
2022/07/02 10:11:04;;;;;;;2.17;0.80;;;;;;;20.14;100.00;102156.03;4995982;28;20262;-69
2022/07/02 10:13:31;;;;;;;1.60;0.80;;;;;;;20.23;100.00;102183.78;4999473;28;21256;-69
2022/07/02 10:16:04;;;;;;;1.73;0.90;;;;;;;20.38;100.00;102177.91;4996614;28;20955;-68
2022/07/02 10:18:30;;;;;;;1.43;0.90;;;;;;;20.29;100.00;102193.75;4996521;28;20984;-69
2022/07/02 10:20:59;;;;;;;2.80;1.07;;;;;;;20.70;100.00;102181.22;4991221;28;20456;-69
2022/07/02 10:23:25;;;;;;;2.60;0.90;;;;;;;20.75;100.00;102170.47;4992170;28;20464;-69
2022/07/02 10:25:52;;;;;;;3.30;0.63;;;;;;;20.27;100.00;102130.50;4990061;28;20570;-68
2022/07/02 10:28:17;;;;;;;14.63;0.80;;;;;;;20.70;100.00;102165.69;4993859;28;20201;-68
2022/07/02 10:30:43;;;;;;;0.60;0.50;;;;;;;20.48;100.00;102180.91;4996525;28;20444;-71
2022/07/02 10:33:33;;;;;;;1.57;1.20;;;;;;;20.74;100.00;102177.81;4991326;28;20697;-70
2022/07/02 10:36:00;;;;;;;1.43;0.87;;;;;;;20.19;100.00;102163.50;4997343;28;20190;-70
2022/07/02 10:38:38;;;;;;;2.77;1.50;;;;;;;20.80;100.00;102167.88;4998270;28;21007;-70
2022/07/02 10:41:04;;;;;;;1.43;0.60;;;;;;;20.91;100.00;102167.03;5001376;28;20670;-69
2022/07/02 10:43:34;;;;;;;1.00;0.50;;;;;;;21.08;100.00;102175.34;5002750;28;20471;-70
2022/07/02 10:46:12;;;;;;;1.77;0.60;;;;;;;20.88;100.00;102167.50;5006753;28;20444;-69
2022/07/02 10:48:52;;;;;;;0.70;0.60;;;;;;;21.03;100.00;102174.38;5008642;28;21126;-70
2022/07/02 10:51:32;;;;;;;0.93;0.70;;;;;;;21.17;100.00;102173.91;5004857;28;20470;-70
2022/07/02 10:54:07;;;;;;;1.30;0.80;;;;;;;21.05;100.00;102183.19;5001670;28;20544;-68
2022/07/02 10:56:45;;;;;;;1.53;1.13;;;;;;;21.17;100.00;102165.72;4996861;28;20493;-68
2022/07/02 10:59:27;;;;;;;1.43;0.80;;;;;;;21.19;100.00;102171.78;4997459;28;20503;-68
2022/07/02 11:02:09;;;;;;;1.43;1.33;;;;;;;21.30;100.00;102142.84;5001193;28;20460;-68
2022/07/02 11:04:36;;;;;;;2.40;1.37;;;;;;;21.09;100.00;102177.03;5004362;28;20436;-69
2022/07/02 11:07:05;;;;;;;1.80;0.97;;;;;;;21.32;100.00;102173.47;5001870;28;20440;-69
2022/07/02 11:09:31;;;;;;;1.50;1.00;;;;;;;21.29;100.00;102141.19;5001720;28;20470;-70
2022/07/02 11:11:59;;;;;;;1.10;0.80;;;;;;;21.50;100.00;102168.97;5002218;28;20469;-70
2022/07/02 11:14:26;;;;;;;0.70;0.60;;;;;;;21.45;100.00;102164.22;5005361;28;20434;-70
2022/07/02 11:16:53;;;;;;;0.93;0.60;;;;;;;21.22;100.00;102176.78;5001906;28;20437;-68
2022/07/02 11:19:24;;;;;;;1.23;0.60;;;;;;;20.95;100.00;102159.22;5005854;28;20428;-70
2022/07/02 11:21:54;;;;;;;2.40;0.67;;;;;;;21.43;100.00;102153.53;5002289;28;20459;-68